createdAt,value
2019-05-26T00:00:08.224Z,101073.09
2019-05-26T00:02:39.228Z,101066.42
2019-05-26T00:05:09.636Z,101063.87
2019-05-26T00:07:39.176Z,101063.87
2019-05-26T00:10:09.122Z,101065.14
2019-05-26T00:12:38.713Z,101065.47
2019-05-26T00:15:08.556Z,101056.20
2019-05-26T00:17:38.135Z,101060.04
2019-05-26T00:20:08.322Z,101053.36
2019-05-26T00:22:37.870Z,101047.30
2019-05-26T00:25:08.036Z,101047.80
2019-05-26T00:27:37.555Z,101043.34
2019-05-26T00:30:08.609Z,101044.16
2019-05-26T00:32:38.391Z,101043.34
2019-05-26T00:35:08.701Z,101043.19
2019-05-26T00:37:49.133Z,101034.44
2019-05-26T00:40:10.455Z,101041.44
2019-05-26T00:42:39.972Z,101035.41
2019-05-26T00:45:09.751Z,101041.44
2019-05-26T00:47:39.380Z,101045.44
2019-05-26T00:50:09.666Z,101046.09
2019-05-26T00:52:39.537Z,101043.85
2019-05-26T00:55:09.197Z,101041.14
2019-05-26T00:57:38.829Z,101044.64
2019-05-26T01:00:11.838Z,101047.66
2019-05-26T01:02:41.442Z,101041.15
2019-05-26T01:05:11.570Z,101037.47
2019-05-26T01:07:41.038Z,101034.77
2019-05-26T01:10:10.764Z,101035.59
2019-05-26T01:12:40.299Z,101020.64
2019-05-26T01:15:11.088Z,101021.43
2019-05-26T01:17:41.658Z,101022.53
2019-05-26T01:20:11.183Z,101024.58
2019-05-26T01:22:40.628Z,101021.90
2019-05-26T01:25:10.380Z,101011.06
2019-05-26T01:27:39.898Z,101015.83
2019-05-26T01:30:09.987Z,101012.95
2019-05-26T01:32:39.587Z,101012.93
2019-05-26T01:35:09.595Z,101012.63
2019-05-26T01:37:39.343Z,101017.23
2019-05-26T01:40:09.469Z,101020.09
2019-05-26T01:42:38.977Z,101016.28
2019-05-26T01:45:09.795Z,101013.55
2019-05-26T01:47:39.266Z,101009.26
2019-05-26T01:50:09.497Z,101008.14
2019-05-26T01:52:39.022Z,100999.25
2019-05-26T01:55:08.774Z,100998.46
2019-05-26T01:57:38.207Z,100998.61
2019-05-26T02:00:08.062Z,101005.62
2019-05-26T02:02:38.789Z,101000.38
2019-05-26T02:05:08.494Z,101002.89
2019-05-26T02:07:37.930Z,100996.53
2019-05-26T02:10:07.948Z,100995.86
2019-05-26T02:12:38.499Z,100990.62
2019-05-26T02:15:08.102Z,100994.13
2019-05-26T02:17:37.627Z,100995.55
2019-05-26T02:20:08.600Z,100992.66
2019-05-26T02:22:38.045Z,100994.74
2019-05-26T02:25:08.255Z,100990.62
2019-05-26T02:27:37.789Z,100990.62
2019-05-26T02:30:09.007Z,100992.05
2019-05-26T02:32:38.537Z,100986.97
2019-05-26T02:35:09.253Z,100979.80
2019-05-26T02:37:39.884Z,100979.02
2019-05-26T02:40:09.991Z,100972.34
2019-05-26T02:42:39.971Z,100965.63
2019-05-26T02:45:12.087Z,100962.78
2019-05-26T02:47:41.633Z,100966.59
2019-05-26T02:50:12.738Z,100966.25
2019-05-26T02:52:42.280Z,100966.55
2019-05-26T02:55:11.887Z,100965.30
2019-05-26T02:57:41.498Z,100968.16
2019-05-26T03:00:12.785Z,100961.45
2019-05-26T03:02:43.522Z,100970.98
2019-05-26T03:05:14.703Z,100968.25
2019-05-26T03:07:44.752Z,100961.75
2019-05-26T03:10:14.863Z,100955.86
2019-05-26T03:12:44.484Z,100951.10
2019-05-26T03:15:14.635Z,100943.17
2019-05-26T03:17:44.150Z,100941.60
2019-05-26T03:20:14.705Z,100934.77
2019-05-26T03:22:44.168Z,100936.02
2019-05-26T03:25:14.759Z,100932.83
2019-05-26T03:27:44.340Z,100932.99
2019-05-26T03:30:13.801Z,100932.52
2019-05-26T03:32:43.338Z,100929.28
2019-05-26T03:35:13.182Z,100929.88
2019-05-26T03:37:42.717Z,100922.44
2019-05-26T03:40:12.685Z,100932.27
2019-05-26T03:42:42.211Z,100928.59
2019-05-26T03:45:14.782Z,100924.64
2019-05-26T03:47:44.257Z,100927.81
2019-05-26T03:50:13.771Z,100935.42
2019-05-26T03:52:43.470Z,100929.41
2019-05-26T03:55:13.084Z,100933.22
2019-05-26T03:57:42.617Z,100933.70
2019-05-26T04:00:12.262Z,100933.70
2019-05-26T04:02:41.876Z,100930.23
2019-05-26T04:05:11.613Z,100923.23
2019-05-26T04:07:41.124Z,100926.73
2019-05-26T04:10:10.946Z,100927.20
2019-05-26T04:12:40.399Z,100924.52
2019-05-26T04:15:09.845Z,100917.38
2019-05-26T04:17:39.295Z,100913.53
2019-05-26T04:20:09.071Z,100913.22
2019-05-26T04:22:38.596Z,100911.75
2019-05-26T04:25:08.411Z,100904.91
2019-05-26T04:27:38.033Z,100893.83
2019-05-26T04:30:08.023Z,100891.79
2019-05-26T04:32:37.471Z,100889.06
2019-05-26T04:35:07.640Z,100885.42
2019-05-26T04:37:37.091Z,100889.06
2019-05-26T04:40:24.761Z,100888.11
2019-05-26T04:42:38.834Z,100888.59
2019-05-26T04:45:08.955Z,100887.16
2019-05-26T04:47:38.501Z,100890.80
2019-05-26T04:50:08.360Z,100899.06
2019-05-26T04:52:37.783Z,100902.09
2019-05-26T04:55:08.714Z,100906.85
2019-05-26T09:00:36.128Z,100814.84
2019-05-26T09:03:05.640Z,100815.22
2019-05-26T09:05:35.169Z,100813.39
2019-05-26T09:08:07.961Z,100809.40
2019-05-26T09:10:36.027Z,100814.83
2019-05-26T09:13:05.479Z,100811.33
2019-05-26T09:15:35.000Z,100814.55
2019-05-26T09:18:04.641Z,100802.48
2019-05-26T09:20:34.239Z,100796.33
2019-05-26T09:23:03.750Z,100793.57
2019-05-26T09:25:33.213Z,100789.81
2019-05-26T09:28:02.730Z,100802.99
2019-05-26T09:30:32.173Z,100794.69
2019-05-26T09:33:01.646Z,100794.18
2019-05-26T09:35:31.163Z,100791.73
2019-05-26T09:38:00.679Z,100788.46
2019-05-26T09:40:30.216Z,100797.00
2019-05-26T09:43:14.801Z,100802.36
2019-05-26T09:45:31.004Z,100792.00
2019-05-26T09:48:00.531Z,100787.09
2019-05-26T09:50:30.040Z,100789.56
2019-05-26T09:52:59.583Z,100778.02
2019-05-26T09:55:29.098Z,100780.23
2019-05-26T09:57:58.542Z,100779.87
2019-05-26T10:00:28.009Z,100771.08
2019-05-26T10:02:57.849Z,100765.73
2019-05-26T10:05:27.383Z,100774.83
2019-05-26T10:07:56.920Z,100774.06
2019-05-26T10:10:26.457Z,100769.03
2019-05-26T10:12:55.971Z,100770.77
2019-05-26T10:15:25.449Z,100769.03
2019-05-26T10:17:54.953Z,100772.20
2019-05-26T10:20:24.410Z,100765.57
2019-05-26T10:22:53.925Z,100782.05
2019-05-26T10:25:24.362Z,100765.84
2019-05-26T10:27:54.051Z,100758.03
2019-05-26T10:30:23.567Z,100756.92
2019-05-26T10:32:53.012Z,100752.56
2019-05-26T10:35:22.651Z,100745.08
2019-05-26T10:37:52.098Z,100759.90
2019-05-26T10:40:21.611Z,100749.59
2019-05-26T10:42:51.140Z,100752.10
2019-05-26T10:45:20.681Z,100755.72
2019-05-26T10:47:50.193Z,100749.83
2019-05-26T10:50:19.719Z,100742.98
2019-05-26T10:52:49.164Z,100734.51
2019-05-26T10:55:18.680Z,100734.03
2019-05-26T10:57:48.132Z,100746.64
2019-05-26T11:00:18.137Z,100735.83
2019-05-26T11:02:47.648Z,100741.02
2019-05-26T11:05:17.254Z,100736.66
2019-05-26T11:07:47.709Z,100731.95
2019-05-26T11:10:17.407Z,100725.78
2019-05-26T11:12:46.915Z,100733.47
2019-05-26T11:15:16.523Z,100711.19
2019-05-26T11:17:46.008Z,100718.95
2019-05-26T11:20:15.824Z,100716.94
2019-05-26T11:22:45.431Z,100715.14
2019-05-26T11:25:15.872Z,100719.41
2019-05-26T11:27:45.311Z,100711.36
2019-05-26T11:30:15.241Z,100702.74
2019-05-26T11:32:44.771Z,100703.69
2019-05-26T11:35:14.512Z,100699.59
2019-05-26T11:37:44.011Z,100700.05
2019-05-26T11:40:13.738Z,100691.02
2019-05-26T11:42:45.084Z,100683.44
2019-05-26T11:45:15.545Z,100677.83
2019-05-26T11:47:44.985Z,100674.59
2019-05-26T11:50:15.119Z,100681.81
2019-05-26T11:52:44.675Z,100694.81
2019-05-26T11:55:14.507Z,100683.83
2019-05-26T11:57:44.016Z,100672.64
2019-05-26T12:00:17.067Z,100670.27
2019-05-26T12:02:46.923Z,100672.16
2019-05-26T12:05:17.944Z,100662.14
2019-05-26T12:07:47.508Z,100669.40
2019-05-26T12:10:17.276Z,100672.92
2019-05-26T12:12:46.781Z,100666.11
2019-05-26T12:15:18.081Z,100667.23
2019-05-26T12:17:47.596Z,100672.86
2019-05-26T12:20:17.216Z,100669.38
2019-05-26T12:22:46.732Z,100664.19
2019-05-26T12:25:19.527Z,100663.16
2019-05-26T12:27:49.112Z,100668.72
2019-05-26T12:30:18.619Z,100662.97
2019-05-26T12:32:48.127Z,100667.22
2019-05-26T12:35:17.869Z,100662.11
2019-05-26T12:37:48.546Z,100668.63
2019-05-26T12:40:18.418Z,100663.18
2019-05-26T12:42:47.939Z,100656.31
2019-05-26T12:45:18.145Z,100658.08
2019-05-26T12:47:47.604Z,100651.66
2019-05-26T12:50:17.814Z,100660.30
2019-05-26T12:52:47.271Z,100656.78
2019-05-26T12:55:16.718Z,100644.77
2019-05-26T12:57:46.216Z,100646.34
2019-05-26T13:00:17.222Z,100642.85
2019-05-26T13:02:46.777Z,100645.11
2019-05-26T13:05:16.623Z,100639.75
2019-05-26T13:07:47.259Z,100627.60
2019-05-26T13:10:18.241Z,100627.75
2019-05-26T13:12:47.755Z,100621.78
2019-05-26T13:15:17.681Z,100624.38
2019-05-26T13:17:47.215Z,100619.00
2019-05-26T13:20:17.072Z,100633.33
2019-05-26T13:22:46.648Z,100631.11
2019-05-26T13:25:16.389Z,100641.98
2019-05-26T13:27:45.824Z,100639.42
2019-05-26T13:30:18.447Z,100649.70
2019-05-26T13:32:48.331Z,100653.11
2019-05-26T13:35:18.164Z,100654.28
2019-05-26T13:37:47.672Z,100657.61
2019-05-26T13:40:17.313Z,100650.93
2019-05-26T13:42:46.779Z,100659.34
2019-05-26T13:45:22.850Z,100657.75
2019-05-26T13:47:47.982Z,100653.41
2019-05-26T13:50:17.721Z,100653.13
2019-05-26T13:52:47.227Z,100636.41
2019-05-26T13:55:17.836Z,100632.63
2019-05-26T13:57:49.554Z,100641.65
2019-05-26T14:00:19.179Z,100625.98
2019-05-26T14:02:48.695Z,100622.77
2019-05-26T14:05:18.719Z,100633.05
2019-05-26T14:07:48.158Z,100627.16
2019-05-26T14:10:21.569Z,100623.55
2019-05-26T14:12:50.270Z,100626.55
2019-05-26T14:15:19.805Z,100628.92
2019-05-26T14:17:49.688Z,100626.83
2019-05-26T14:20:22.256Z,100625.49
2019-05-26T14:22:51.763Z,100627.28
2019-05-26T14:25:21.285Z,100623.39
2019-05-26T14:27:51.149Z,100624.73
2019-05-26T14:30:20.659Z,100620.47
2019-05-26T14:32:50.170Z,100618.33
2019-05-26T14:35:19.628Z,100617.05
2019-05-26T14:37:49.139Z,100607.75
2019-05-26T14:40:18.647Z,100607.80
2019-05-26T14:42:48.144Z,100600.16
2019-05-26T14:45:17.739Z,100603.18
2019-05-26T14:47:47.179Z,100600.59
2019-05-26T14:50:18.715Z,100596.42
2019-05-26T14:52:48.220Z,100593.59
2019-05-26T14:55:17.754Z,100596.31
2019-05-26T14:57:47.478Z,100590.95
2019-05-26T15:00:18.745Z,100591.18
2019-05-26T15:02:48.179Z,100583.55
2019-05-26T15:05:17.891Z,100594.16
2019-05-26T15:07:47.353Z,100586.17
2019-05-26T15:10:16.962Z,100578.91
2019-05-26T15:12:46.409Z,100573.05
2019-05-26T15:15:16.233Z,100575.00
2019-05-26T15:17:45.739Z,100580.55
2019-05-26T15:20:15.411Z,100570.27
2019-05-26T15:22:44.855Z,100568.84
2019-05-26T15:25:14.763Z,100562.59
2019-05-26T15:27:46.534Z,100559.59
2019-05-26T15:30:17.109Z,100562.25
2019-05-26T15:32:46.723Z,100565.98
2019-05-26T15:35:16.340Z,100565.70
2019-05-26T15:37:45.871Z,100558.04
2019-05-26T15:40:15.304Z,100560.16
2019-05-26T15:42:44.811Z,100546.91
2019-05-26T15:45:14.448Z,100548.97
2019-05-26T15:47:43.887Z,100544.81
2019-05-26T15:50:13.968Z,100543.20
2019-05-26T15:52:43.550Z,100539.02
2019-05-26T15:55:13.255Z,100537.78
2019-05-26T15:57:42.716Z,100546.55
2019-05-26T16:00:12.618Z,100533.27
2019-05-26T16:02:42.123Z,100546.11
2019-05-26T16:05:11.870Z,100533.15
2019-05-26T16:07:41.367Z,100542.39
2019-05-26T16:10:11.060Z,100544.52
2019-05-26T16:12:40.587Z,100543.28
2019-05-26T16:15:10.200Z,100543.53
2019-05-26T16:17:39.635Z,100541.52
2019-05-26T16:20:09.570Z,100536.72
2019-05-26T16:22:39.031Z,100534.54
2019-05-26T16:25:08.822Z,100529.80
2019-05-26T16:27:38.323Z,100527.69
2019-05-26T16:30:09.237Z,100520.86
2019-05-26T16:32:38.768Z,100520.42
2019-05-26T16:35:08.677Z,100516.64
2019-05-26T16:37:38.211Z,100519.06
2019-05-26T16:40:08.532Z,100515.04
2019-05-26T16:42:38.043Z,100508.41
2019-05-26T16:45:08.381Z,100516.30
2019-05-26T16:47:37.824Z,100510.98
2019-05-26T16:50:08.725Z,100513.30
2019-05-26T16:52:38.294Z,100504.19
2019-05-26T16:55:08.008Z,100506.05
2019-05-26T16:57:38.662Z,100508.58
2019-05-26T17:00:09.626Z,100514.16
2019-05-26T17:02:39.084Z,100524.86
2019-05-26T17:05:08.677Z,100522.69
2019-05-26T17:07:38.210Z,100522.60
2019-05-26T17:10:08.426Z,100520.62
2019-05-26T17:12:37.892Z,100520.88
2019-05-26T17:15:07.940Z,100519.82
2019-05-26T17:17:37.459Z,100513.58
2019-05-26T17:20:07.804Z,100518.75
2019-05-26T17:22:37.324Z,100508.95
2019-05-26T17:25:07.458Z,100514.34
2019-05-26T17:27:36.918Z,100517.80
2019-05-26T17:30:08.030Z,100511.91
2019-05-26T17:32:37.562Z,100501.44
2019-05-26T17:35:07.271Z,100503.30
2019-05-26T17:37:37.782Z,100503.52
2019-05-26T17:40:09.013Z,100510.97
2019-05-26T17:42:38.459Z,100508.19
2019-05-26T17:45:08.477Z,100508.27
2019-05-26T17:47:37.939Z,100501.59
2019-05-26T17:50:08.247Z,100496.36
2019-05-26T17:52:37.767Z,100503.88
2019-05-26T17:55:10.386Z,100495.50
2019-05-26T17:57:39.793Z,100498.95
2019-05-26T18:00:13.450Z,100492.98
2019-05-26T18:02:42.962Z,100492.59
2019-05-26T18:05:12.402Z,100490.57
2019-05-26T18:07:41.960Z,100487.27
2019-05-26T18:10:11.561Z,100492.58
2019-05-26T18:12:40.997Z,100489.91
2019-05-26T18:15:10.633Z,100489.81
2019-05-26T18:17:47.086Z,100491.09
2019-05-26T18:20:13.719Z,100484.77
2019-05-26T18:22:43.323Z,100490.66
2019-05-26T18:25:13.111Z,100490.16
2019-05-26T18:27:42.556Z,100492.88
2019-05-26T18:30:12.407Z,100491.50
2019-05-26T18:32:41.870Z,100484.34
2019-05-26T18:35:11.607Z,100487.20
2019-05-26T18:37:41.102Z,100485.34
2019-05-26T18:40:11.697Z,100475.30
2019-05-26T18:42:41.263Z,100481.31
2019-05-26T18:45:10.988Z,100487.55
2019-05-26T18:47:40.502Z,100491.66
2019-05-26T18:50:10.016Z,100485.67
2019-05-26T18:52:39.639Z,100485.13
2019-05-26T18:55:09.478Z,100483.56
2019-05-26T18:57:38.985Z,100472.88
2019-05-26T19:00:08.695Z,100478.02
2019-05-26T19:02:38.146Z,100481.55
2019-05-26T19:05:08.472Z,100482.32
2019-05-26T19:07:38.013Z,100478.02
2019-05-26T19:10:08.250Z,100484.06
2019-05-26T19:12:37.835Z,100484.75
2019-05-26T19:15:08.250Z,100482.69
2019-05-26T19:17:37.769Z,100477.90
2019-05-26T19:20:16.053Z,100484.13
2019-05-26T19:22:39.245Z,100482.59
2019-05-26T19:25:08.883Z,100478.67
2019-05-26T19:27:38.475Z,100483.52
2019-05-26T19:30:09.508Z,100482.43
2019-05-26T19:32:39.103Z,100492.95
2019-05-26T19:35:09.015Z,100493.63
2019-05-26T19:37:40.048Z,100491.76
2019-05-26T19:40:10.068Z,100488.58
2019-05-26T19:42:39.587Z,100494.31
2019-05-26T19:45:09.110Z,100501.36
2019-05-26T19:47:39.633Z,100496.62
2019-05-26T19:50:09.368Z,100503.03
2019-05-26T19:52:38.806Z,100503.08
2019-05-26T19:55:08.897Z,100502.30
2019-05-26T19:57:38.458Z,100504.25
2019-05-26T20:00:12.796Z,100514.31
2019-05-26T20:02:42.328Z,100515.14
2019-05-26T20:05:12.237Z,100517.84
2019-05-26T20:07:41.753Z,100509.75
2019-05-26T20:10:11.690Z,100510.86
2019-05-26T20:12:41.267Z,100520.44
2019-05-26T20:15:11.209Z,100526.81
2019-05-26T20:17:40.717Z,100530.66
2019-05-26T20:20:11.207Z,100529.69
2019-05-26T20:22:40.734Z,100532.55
2019-05-26T20:25:10.387Z,100532.10
2019-05-26T20:27:40.243Z,100527.70
2019-05-26T20:30:09.876Z,100529.63
2019-05-26T20:32:39.384Z,100535.06
2019-05-26T20:35:09.237Z,100538.87
2019-05-26T20:37:38.928Z,100550.20
2019-05-26T20:40:09.628Z,100550.06
2019-05-26T20:42:40.312Z,100551.17
2019-05-26T20:45:10.119Z,100565.64
2019-05-26T20:47:39.634Z,100574.34
2019-05-26T20:50:10.484Z,100573.38
2019-05-26T20:52:40.159Z,100579.91
2019-05-26T20:55:10.079Z,100578.81
2019-05-26T20:57:39.584Z,100578.84
2019-05-26T21:03:33.549Z,100580.44
2019-05-26T21:06:03.016Z,100595.42
2019-05-26T21:08:32.529Z,100591.45
2019-05-26T21:14:02.114Z,100590.83
2019-05-26T21:16:31.725Z,100594.98
2019-05-26T21:19:01.298Z,100602.95
2019-05-26T21:24:31.620Z,100590.92
2019-05-26T21:27:01.152Z,100595.53
2019-05-26T21:29:30.595Z,100592.83
2019-05-26T21:32:00.199Z,100601.89
2019-05-26T21:34:29.732Z,100598.89
2019-05-26T21:36:59.241Z,100592.53
2019-05-26T21:39:29.775Z,100589.02
2019-05-26T21:41:59.332Z,100600.33
2019-05-26T21:44:28.820Z,100599.22
2019-05-26T21:46:58.356Z,100599.83
2019-05-26T21:49:27.812Z,100609.08
2019-05-26T21:51:57.328Z,100612.39
2019-05-26T21:54:26.787Z,100618.45
2019-05-26T21:56:56.233Z,100609.39
2019-05-26T21:59:25.759Z,100622.43
2019-05-26T22:01:55.223Z,100624.77
2019-05-26T22:04:24.728Z,100625.91
2019-05-26T22:06:54.262Z,100622.89
2019-05-26T22:09:23.720Z,100627.03
2019-05-26T22:11:53.165Z,100622.09
2019-05-26T22:14:22.676Z,100631.31
2019-05-26T22:16:52.218Z,100628.29
2019-05-26T22:19:21.819Z,100627.49
2019-05-26T22:21:51.849Z,100621.02
2019-05-26T22:24:21.376Z,100619.40
2019-05-26T22:26:51.128Z,100620.67
2019-05-26T22:29:21.629Z,100625.91
2019-05-26T22:31:51.177Z,100620.67
2019-05-26T22:34:20.737Z,100620.52
2019-05-26T22:36:50.161Z,100617.20
2019-05-26T22:39:19.689Z,100624.17
2019-05-26T22:41:49.185Z,100617.03
2019-05-26T22:44:19.111Z,100625.58
2019-05-26T22:46:48.567Z,100626.38
2019-05-26T22:49:18.019Z,100617.64
2019-05-26T22:51:47.469Z,100617.14
2019-05-26T22:54:17.005Z,100616.44
2019-05-26T22:56:46.582Z,100616.58
2019-05-26T22:59:16.018Z,100621.12
2019-05-26T23:01:45.549Z,100615.06
2019-05-26T23:04:15.939Z,100619.16
2019-05-26T23:06:45.482Z,100620.66
2019-05-26T23:09:14.928Z,100619.66
2019-05-26T23:11:44.477Z,100618.64
2019-05-26T23:14:13.937Z,100621.75
2019-05-26T23:16:43.397Z,100621.34
2019-05-26T23:19:19.300Z,100622.35
2019-05-26T23:21:44.142Z,100628.14
2019-05-26T23:24:13.740Z,100621.73
2019-05-26T23:26:43.246Z,100621.37
2019-05-26T23:29:12.719Z,100626.22
2019-05-26T23:31:42.256Z,100624.42
2019-05-26T23:34:13.594Z,100629.12
2019-05-26T23:36:43.059Z,100627.32
2019-05-26T23:39:12.545Z,100627.29
2019-05-26T23:41:43.085Z,100633.41
2019-05-26T23:44:12.594Z,100621.89
2019-05-26T23:46:42.102Z,100620.93
2019-05-26T23:49:11.629Z,100620.29
2019-05-26T23:51:41.155Z,100620.93
2019-05-26T23:54:10.683Z,100616.48
2019-05-26T23:56:40.169Z,100610.59
2019-05-26T23:59:09.689Z,100618.77
